Time;durP1;ratioP1;P1;durP2;ratioP2;P2;SDS_P1;SDS_P2;PMS_P1;PMS_P2;Temp;Humidity;BMP_temperature;BMP_pressure;BME280_temperature;BME280_humidity;BME280_pressure;Samples;Min_cycle;Max_cycle;Signal;HPM_P1;HPM_P2
2023/12/18 00:00:30;;;;;;;8.50;7.00;;;;;;;3.32;100.00;100302.11;106663;1257;60624;-77
2023/12/18 00:02:57;;;;;;;10.80;8.20;;;;;;;3.30;100.00;100304.67;107475;1259;73748;-81
2023/12/18 00:05:24;;;;;;;9.20;7.90;;;;;;;3.29;100.00;100315.43;106532;1256;68968;-77
2023/12/18 00:07:51;;;;;;;9.30;7.10;;;;;;;3.28;100.00;100309.38;107441;1256;71571;-77
2023/12/18 00:10:18;;;;;;;10.30;8.10;;;;;;;3.28;100.00;100294.91;106450;1256;60489;-78
2023/12/18 00:12:46;;;;;;;9.60;7.50;;;;;;;3.26;100.00;100289.41;106366;1256;60444;-77
2023/12/18 00:15:13;;;;;;;8.60;7.00;;;;;;;3.23;100.00;100298.91;107321;1256;72590;-76
2023/12/18 00:17:40;;;;;;;8.20;6.30;;;;;;;3.22;100.00;100294.11;106210;1259;68037;-77
2023/12/18 00:20:08;;;;;;;7.60;6.40;;;;;;;3.22;100.00;100294.08;106137;1257;71168;-76
2023/12/18 00:22:35;;;;;;;8.60;6.80;;;;;;;3.23;100.00;100290.31;105895;1257;61932;-77
2023/12/18 00:25:02;;;;;;;9.90;7.50;;;;;;;3.25;100.00;100280.02;105669;1256;60443;-73
2023/12/18 00:27:29;;;;;;;7.50;5.60;;;;;;;3.23;100.00;100279.65;105545;1256;73771;-76
2023/12/18 00:29:56;;;;;;;7.70;6.40;;;;;;;3.26;100.00;100275.89;105740;1256;70127;-76
2023/12/18 00:32:23;;;;;;;7.40;5.50;;;;;;;3.32;100.00;100270.41;105651;1259;72030;-77
2023/12/18 00:34:50;;;;;;;7.60;6.20;;;;;;;3.36;100.00;100267.85;105614;1256;60439;-73
2023/12/18 00:37:18;;;;;;;6.10;5.30;;;;;;;3.36;100.00;100266.11;105857;1259;61128;-77
2023/12/18 00:39:44;;;;;;;6.90;5.80;;;;;;;3.39;100.00;100257.52;105802;1259;72542;-74
2023/12/18 00:42:11;;;;;;;7.10;5.80;;;;;;;3.40;100.00;100246.73;106210;1256;70304;-77
2023/12/18 00:44:38;;;;;;;8.50;6.20;;;;;;;3.42;100.00;100240.68;106311;1259;71200;-77
2023/12/18 00:47:05;;;;;;;7.50;6.60;;;;;;;3.44;100.00;100238.55;107236;1255;61811;-75
2023/12/18 00:49:32;;;;;;;6.70;5.90;;;;;;;3.45;100.00;100239.06;107812;1255;414339;-79
2023/12/18 00:51:59;;;;;;;6.80;5.90;;;;;;;3.45;100.00;100248.31;106543;1256;72581;-76
2023/12/18 00:55:28;;;;;;;8.30;6.00;;;;;;;3.53;100.00;100249.27;102851;1289;616148;-77
2023/12/18 00:57:55;;;;;;;8.30;6.40;;;;;;;3.55;100.00;100251.27;106236;1257;59230;-76
2023/12/18 01:00:22;;;;;;;7.50;6.00;;;;;;;3.58;100.00;100243.19;108726;1256;59334;-77
2023/12/18 01:02:50;;;;;;;7.40;6.60;;;;;;;3.60;100.00;100241.81;105819;1260;72073;-79
2023/12/18 01:05:17;;;;;;;7.90;7.00;;;;;;;3.61;100.00;100229.52;105476;1257;68925;-76
2023/12/18 01:07:44;;;;;;;8.00;6.30;;;;;;;3.64;100.00;100226.13;105522;1261;167507;-74
2023/12/18 01:10:12;;;;;;;9.30;7.50;;;;;;;3.66;100.00;100223.71;105655;1254;60479;-78
2023/12/18 01:12:39;;;;;;;8.70;7.20;;;;;;;3.61;100.00;100222.66;105765;1256;60529;-80
2023/12/18 01:15:07;;;;;;;7.30;6.40;;;;;;;3.64;100.00;100214.75;105651;1259;72550;-79
2023/12/18 01:17:34;;;;;;;7.90;6.10;;;;;;;3.67;100.00;100206.63;105814;1257;69448;-78
2023/12/18 01:20:05;;;;;;;9.10;6.70;;;;;;;3.67;100.00;100200.85;105790;1259;72701;-78
2023/12/18 01:22:32;;;;;;;10.00;7.50;;;;;;;3.63;100.00;100203.09;105811;1257;62065;-79
2023/12/18 01:25:00;;;;;;;10.20;7.60;;;;;;;3.63;100.00;100203.03;105660;1260;60171;-79
2023/12/18 01:27:27;;;;;;;9.60;7.00;;;;;;;3.66;100.00;100210.36;105773;1256;73056;-79
2023/12/18 01:29:54;;;;;;;9.00;6.80;;;;;;;3.68;100.00;100202.19;105580;1260;69080;-76
2023/12/18 01:32:21;;;;;;;9.40;7.20;;;;;;;3.69;100.00;100202.58;105632;1257;72486;-78
2023/12/18 01:34:48;;;;;;;11.40;8.30;;;;;;;3.71;100.00;100199.32;105668;1256;60490;-77
2023/12/18 01:37:14;;;;;;;12.50;9.30;;;;;;;3.72;100.00;100188.90;105669;1257;59704;-78
2023/12/18 01:39:41;;;;;;;11.60;8.80;;;;;;;3.72;100.00;100188.71;105907;1257;71494;-77
2023/12/18 01:42:08;;;;;;;11.20;8.70;;;;;;;3.72;100.00;100183.29;107557;1256;70147;-76
2023/12/18 01:44:35;;;;;;;12.00;8.50;;;;;;;3.74;100.00;100181.05;108387;1257;71222;-77
2023/12/18 01:47:03;;;;;;;11.30;8.30;;;;;;;3.78;100.00;100176.77;106749;1258;60737;-76
2023/12/18 01:49:29;;;;;;;12.50;9.30;;;;;;;3.79;100.00;100167.55;105790;1260;60195;-77
2023/12/18 01:51:56;;;;;;;13.30;10.30;;;;;;;3.80;100.00;100162.27;105600;1257;73268;-78
2023/12/18 01:54:23;;;;;;;10.80;9.10;;;;;;;3.79;100.00;100163.16;105725;1257;68921;-76
2023/12/18 01:56:51;;;;;;;11.40;8.90;;;;;;;3.77;100.00;100168.73;105739;1257;73952;-77
2023/12/18 01:59:18;;;;;;;11.30;8.80;;;;;;;3.77;100.00;100172.47;105615;1260;60394;-75
2023/12/18 02:01:45;;;;;;;13.70;9.80;;;;;;;3.78;100.00;100166.98;105775;1256;59985;-78
2023/12/18 02:04:12;;;;;;;13.80;10.20;;;;;;;3.75;100.00;100156.64;105940;1254;71626;-75
2023/12/18 02:06:39;;;;;;;11.00;8.90;;;;;;;3.74;100.00;100167.70;105653;1259;70220;-76
2023/12/18 02:09:06;;;;;;;15.40;10.90;;;;;;;3.73;100.00;100190.90;105849;1254;70087;-74
2023/12/18 02:11:32;;;;;;;13.40;9.90;;;;;;;3.73;100.00;100181.48;105848;1254;61920;-76
2023/12/18 02:13:59;;;;;;;15.10;10.80;;;;;;;3.72;100.00;100167.86;105910;1257;60118;-75
2023/12/18 02:16:29;;;;;;;14.10;10.10;;;;;;;3.72;100.00;100154.03;105942;1256;72991;-73
2023/12/18 02:18:55;;;;;;;13.40;11.10;;;;;;;3.74;100.00;100142.69;105905;1254;70101;-76
2023/12/18 02:21:22;;;;;;;15.20;11.10;;;;;;;3.74;100.00;100148.61;106035;1257;72408;-76
2023/12/18 02:23:49;;;;;;;13.60;10.80;;;;;;;3.69;100.00;100145.65;105844;1254;61633;-76
2023/12/18 02:26:16;;;;;;;15.40;11.50;;;;;;;3.69;100.00;100144.81;105815;1254;60449;-76
2023/12/18 02:28:43;;;;;;;30.50;20.70;;;;;;;3.71;100.00;100135.76;105888;1256;73007;-77
2023/12/18 02:31:14;;;;;;;17.30;12.40;;;;;;;3.71;100.00;100136.93;106026;1254;69201;-76
2023/12/18 02:33:48;;;;;;;15.40;11.60;;;;;;;3.71;100.00;100142.88;106792;1254;71928;-75
2023/12/18 02:36:16;;;;;;;14.40;10.70;;;;;;;3.71;100.00;100139.39;108279;1253;60658;-77
2023/12/18 02:38:44;;;;;;;16.10;11.80;;;;;;;3.73;100.00;100145.05;108472;1253;58051;-78
2023/12/18 02:41:10;;;;;;;17.00;12.50;;;;;;;3.73;100.00;100155.73;107671;1253;72029;-80
2023/12/18 02:43:37;;;;;;;17.90;12.40;;;;;;;3.71;100.00;100173.34;105960;1254;70110;-78
2023/12/18 02:46:04;;;;;;;15.00;11.30;;;;;;;3.77;100.00;100181.57;105892;1259;71428;-79
2023/12/18 02:48:31;;;;;;;17.00;12.30;;;;;;;3.78;100.00;100183.40;106415;1254;60937;-76
2023/12/18 02:50:58;;;;;;;16.80;11.70;;;;;;;3.78;100.00;100184.77;106048;1254;60312;-79
2023/12/18 02:53:26;;;;;;;19.90;13.20;;;;;;;3.78;100.00;100188.13;105979;1254;73099;-79
2023/12/18 02:55:52;;;;;;;16.30;11.70;;;;;;;3.74;100.00;100187.01;105866;1254;70407;-78
2023/12/18 02:58:21;;;;;;;16.60;11.80;;;;;;;3.73;100.00;100184.58;106022;1255;72809;-76
2023/12/18 03:00:49;;;;;;;16.40;12.00;;;;;;;3.78;100.00;100185.17;105986;1254;60749;-76
2023/12/18 03:03:16;;;;;;;14.10;10.90;;;;;;;3.81;100.00;100182.66;105903;1259;59647;-76
2023/12/18 03:05:43;;;;;;;17.10;11.30;;;;;;;3.80;100.00;100183.23;105687;1254;73022;-77
2023/12/18 03:08:09;;;;;;;17.00;12.00;;;;;;;3.73;100.00;100183.94;105716;1253;70091;-79
2023/12/18 03:10:36;;;;;;;15.90;11.70;;;;;;;3.70;100.00;100182.52;105915;1254;72857;-78
2023/12/18 03:13:03;;;;;;;17.70;12.00;;;;;;;3.75;100.00;100176.29;105907;1259;60737;-78
2023/12/18 03:15:30;;;;;;;15.50;11.40;;;;;;;3.76;100.00;100175.64;105945;1254;60341;-78
2023/12/18 03:17:57;;;;;;;15.20;11.40;;;;;;;3.78;100.00;100180.24;105937;1256;72937;-79
2023/12/18 03:20:24;;;;;;;14.70;10.60;;;;;;;3.76;100.00;100179.36;105887;1254;70023;-77
2023/12/18 03:22:51;;;;;;;13.70;10.50;;;;;;;3.77;100.00;100174.33;106017;1254;71431;-78
2023/12/18 03:25:18;;;;;;;15.70;11.70;;;;;;;3.80;100.00;100169.37;106176;1254;59704;-79
2023/12/18 03:27:45;;;;;;;16.00;12.20;;;;;;;3.75;100.00;100167.66;106040;1254;59647;-76
2023/12/18 03:30:12;;;;;;;14.00;10.20;;;;;;;3.75;100.00;100167.83;106019;1254;72855;-78
2023/12/18 03:32:40;;;;;;;15.40;11.70;;;;;;;3.78;100.00;100167.10;106859;1254;70380;-78
2023/12/18 03:35:08;;;;;;;15.00;11.40;;;;;;;3.80;100.00;100156.79;107701;1253;72686;-78
2023/12/18 03:37:36;;;;;;;16.10;11.10;;;;;;;3.81;100.00;100149.04;106949;1254;60466;-80
2023/12/18 03:40:04;;;;;;;22.20;16.30;;;;;;;3.82;100.00;100138.73;106454;1254;59611;-80
2023/12/18 03:42:31;;;;;;;18.20;11.30;;;;;;;3.84;100.00;100135.48;106383;1257;73115;-79
2023/12/18 03:44:58;;;;;;;14.50;10.00;;;;;;;3.85;100.00;100139.21;105956;1254;70045;-78
2023/12/18 03:47:25;;;;;;;14.50;11.00;;;;;;;3.87;100.00;100143.48;105945;1254;72459;-80
2023/12/18 03:49:53;;;;;;;14.10;11.10;;;;;;;3.85;100.00;100141.55;105956;1255;61850;-78
2023/12/18 03:52:19;;;;;;;15.20;10.80;;;;;;;3.87;100.00;100139.08;106016;1254;60184;-80
2023/12/18 03:54:46;;;;;;;15.10;10.20;;;;;;;3.89;100.00;100143.65;105978;1259;71445;-78
2023/12/18 03:57:14;;;;;;;16.50;11.40;;;;;;;3.90;100.00;100142.88;106459;1254;70111;-78
2023/12/18 03:59:40;;;;;;;17.80;13.30;;;;;;;3.88;100.00;100143.39;106269;1258;71597;-79
2023/12/18 04:02:07;;;;;;;16.10;11.20;;;;;;;3.89;100.00;100134.91;107062;1253;60455;-78
2023/12/18 04:04:34;;;;;;;16.70;11.90;;;;;;;3.91;100.00;100125.80;106887;1254;60170;-79
2023/12/18 04:07:01;;;;;;;14.00;10.40;;;;;;;3.91;100.00;100119.65;106670;1254;71470;-79
2023/12/18 04:09:28;;;;;;;15.80;10.80;;;;;;;3.90;100.00;100116.42;107167;1253;70337;-77
2023/12/18 04:11:54;;;;;;;17.00;11.70;;;;;;;3.85;100.00;100111.53;109240;1254;71127;-76
2023/12/18 04:14:21;;;;;;;14.70;11.20;;;;;;;3.87;100.00;100107.39;106403;1254;60714;-77
2023/12/18 04:16:48;;;;;;;14.20;11.10;;;;;;;3.90;100.00;100100.70;105993;1254;60426;-77
2023/12/18 04:19:15;;;;;;;15.90;12.10;;;;;;;3.90;100.00;100100.11;105903;1259;72813;-75
2023/12/18 04:21:42;;;;;;;16.20;11.20;;;;;;;3.88;100.00;100113.29;105798;1254;70073;-79
2023/12/18 04:24:09;;;;;;;15.90;12.20;;;;;;;3.86;100.00;100120.02;105860;1254;72611;-77
2023/12/18 04:26:36;;;;;;;16.60;12.10;;;;;;;3.89;100.00;100125.42;105822;1259;62117;-76
2023/12/18 04:29:03;;;;;;;15.70;10.90;;;;;;;3.91;100.00;100129.17;107817;1254;60116;-74
2023/12/18 04:31:31;;;;;;;15.80;11.80;;;;;;;3.92;100.00;100116.79;107689;1254;71988;-77
2023/12/18 04:33:58;;;;;;;18.50;12.80;;;;;;;3.93;100.00;100112.90;106374;1259;69169;-78
2023/12/18 04:36:25;;;;;;;21.90;14.40;;;;;;;3.93;100.00;100109.02;106059;1254;71113;-79
2023/12/18 04:38:54;;;;;;;19.80;14.20;;;;;;;3.88;100.00;100111.31;106237;1254;61952;-81
2023/12/18 04:41:21;;;;;;;21.20;14.00;;;;;;;3.89;100.00;100106.38;106094;1257;60382;-76
2023/12/18 04:43:49;;;;;;;17.50;13.50;;;;;;;3.89;100.00;100106.86;105850;1254;71587;-77
2023/12/18 04:46:15;;;;;;;19.70;13.90;;;;;;;3.89;100.00;100101.66;105964;1254;70327;-78
2023/12/18 04:48:42;;;;;;;16.30;12.70;;;;;;;3.88;100.00;100099.23;105899;1254;71375;-77
2023/12/18 04:51:10;;;;;;;19.90;14.00;;;;;;;3.84;100.00;100099.52;105758;1254;61792;-79
2023/12/18 04:53:37;;;;;;;20.90;14.00;;;;;;;3.85;100.00;100098.95;105930;1256;60328;-77
2023/12/18 04:56:05;;;;;;;20.90;14.30;;;;;;;3.85;100.00;100100.53;105938;1254;72997;-78
2023/12/18 04:58:35;;;;;;;19.90;14.10;;;;;;;3.86;100.00;100106.96;106083;1258;70361;-77
2023/12/18 05:01:03;;;;;;;21.70;15.20;;;;;;;3.86;100.00;100105.19;107105;1254;72703;-80
2023/12/18 05:03:31;;;;;;;21.40;14.60;;;;;;;3.82;100.00;100105.64;106213;1259;60472;-80
2023/12/18 05:05:58;;;;;;;21.20;15.20;;;;;;;3.82;100.00;100097.27;106045;1254;60504;-80
2023/12/18 05:08:25;;;;;;;20.20;14.80;;;;;;;3.83;100.00;100092.64;105890;1254;73916;-83
2023/12/18 05:10:52;;;;;;;22.80;15.80;;;;;;;3.82;100.00;100095.98;105996;1256;69183;-79
2023/12/18 05:13:19;;;;;;;23.50;15.10;;;;;;;3.78;100.00;100113.66;105919;1256;71419;-77
2023/12/18 05:15:46;;;;;;;24.30;16.80;;;;;;;3.78;100.00;100126.08;105848;1254;61816;-78
2023/12/18 05:18:13;;;;;;;21.10;14.80;;;;;;;3.80;100.00;100124.55;105945;1258;60184;-78
2023/12/18 05:20:40;;;;;;;21.90;14.60;;;;;;;3.81;100.00;100126.24;106037;1254;73808;-81
2023/12/18 05:23:08;;;;;;;21.90;15.60;;;;;;;3.79;100.00;100121.48;106196;1254;68741;-77
2023/12/18 05:25:35;;;;;;;22.40;14.40;;;;;;;3.80;100.00;100123.67;109011;1254;71015;-78
2023/12/18 05:28:02;;;;;;;22.30;15.30;;;;;;;3.82;100.00;100131.59;108611;1254;61805;-81
2023/12/18 05:30:29;;;;;;;23.40;16.20;;;;;;;3.85;100.00;100137.86;106203;1258;60404;-81
2023/12/18 05:32:56;;;;;;;20.00;13.60;;;;;;;3.84;100.00;100140.05;106239;1254;72930;-82
2023/12/18 05:35:23;;;;;;;21.60;14.60;;;;;;;3.85;100.00;100144.11;105973;1252;70865;-83
2023/12/18 05:37:55;;;;;;;21.10;14.40;;;;;;;3.85;100.00;100138.92;105897;1254;72509;-80
2023/12/18 05:40:22;;;;;;;20.10;14.20;;;;;;;3.83;100.00;100136.62;105847;1258;60539;-78
2023/12/18 05:42:49;;;;;;;20.90;13.70;;;;;;;3.78;100.00;100136.98;105820;1259;60492;-78
2023/12/18 05:45:16;;;;;;;20.00;13.80;;;;;;;3.80;100.00;100135.07;106598;1254;73740;-79
2023/12/18 05:47:43;;;;;;;19.60;13.50;;;;;;;3.81;100.00;100124.45;108723;1254;69997;-79
2023/12/18 05:50:11;;;;;;;18.10;12.70;;;;;;;3.83;100.00;100125.75;105914;1254;71174;-80
2023/12/18 05:52:38;;;;;;;18.80;12.80;;;;;;;3.83;100.00;100126.27;105939;1254;62020;-79
2023/12/18 05:55:05;;;;;;;17.20;12.00;;;;;;;3.82;100.00;100124.20;106108;1254;60447;-79
2023/12/18 05:57:38;;;;;;;16.90;11.80;;;;;;;3.79;100.00;100123.98;105944;1255;73774;-79
2023/12/18 06:00:06;;;;;;;16.80;11.70;;;;;;;3.81;100.00;100123.98;105922;1258;68830;-78
2023/12/18 06:02:34;;;;;;;15.50;11.60;;;;;;;3.85;100.00;100123.30;106128;1256;72642;-81
2023/12/18 06:05:01;;;;;;;18.80;12.80;;;;;;;3.88;100.00;100120.48;106070;1254;62010;-75
2023/12/18 06:07:33;;;;;;;14.80;11.10;;;;;;;3.86;100.00;100119.55;106255;1256;60294;-82
2023/12/18 06:10:03;;;;;;;15.00;11.90;;;;;;;3.90;100.00;100118.23;106251;1257;73828;-80
2023/12/18 06:12:30;;;;;;;15.10;11.80;;;;;;;3.93;100.00;100114.66;106271;1254;69227;-83
2023/12/18 06:14:57;;;;;;;16.40;12.30;;;;;;;3.95;100.00;100112.58;106022;1254;72965;-82
2023/12/18 06:17:24;;;;;;;16.00;11.80;;;;;;;3.95;100.00;100114.84;105959;1254;61989;-80
2023/12/18 06:19:52;;;;;;;17.50;11.90;;;;;;;3.94;100.00;100115.23;108001;1254;60271;-83
2023/12/18 06:22:21;;;;;;;16.00;12.80;;;;;;;3.95;100.00;100113.10;109111;1253;73084;-80
2023/12/18 06:24:51;;;;;;;16.60;11.90;;;;;;;3.94;100.00;100115.79;107520;1256;68896;-80
2023/12/18 06:27:18;;;;;;;17.10;12.00;;;;;;;3.96;100.00;100114.19;106416;1254;72460;-83
2023/12/18 06:29:46;;;;;;;16.30;11.60;;;;;;;3.98;100.00;100104.64;106670;1258;60556;-80
2023/12/18 06:32:14;;;;;;;15.70;12.70;;;;;;;3.98;100.00;100108.34;106186;1254;59972;-80
2023/12/18 06:34:42;;;;;;;17.90;13.40;;;;;;;3.98;100.00;100102.19;106174;1257;72348;-81
2023/12/18 06:37:11;;;;;;;17.60;13.10;;;;;;;4.00;100.00;100096.44;106128;1253;70282;-81
2023/12/18 06:39:40;;;;;;;16.40;12.70;;;;;;;3.98;100.00;100098.00;106295;1254;72520;-83
2023/12/18 06:42:07;;;;;;;16.80;13.30;;;;;;;3.93;100.00;100097.98;106250;1255;60807;-83
2023/12/18 06:44:34;;;;;;;18.30;13.90;;;;;;;3.94;100.00;100095.27;106361;1254;60566;-82
2023/12/18 06:47:01;;;;;;;19.90;13.60;;;;;;;3.94;100.00;100090.89;106302;1258;73913;-82
2023/12/18 06:49:29;;;;;;;18.40;14.50;;;;;;;3.91;100.00;100091.82;107060;1254;70245;-80
2023/12/18 06:51:58;;;;;;;21.00;13.80;;;;;;;3.92;100.00;100095.42;106689;1253;71454;-79
2023/12/18 06:54:26;;;;;;;16.10;12.70;;;;;;;3.95;100.00;100092.59;106328;1254;62057;-81
2023/12/18 06:56:54;;;;;;;19.60;14.40;;;;;;;3.95;100.00;100097.15;106667;1256;60383;-80
2023/12/18 06:59:21;;;;;;;21.10;15.40;;;;;;;3.94;100.00;100101.21;106401;1254;72845;-81
2023/12/18 07:01:49;;;;;;;20.40;13.20;;;;;;;3.94;100.00;100098.79;106210;1257;69135;-79
2023/12/18 07:04:17;;;;;;;19.90;15.10;;;;;;;3.93;100.00;100100.95;106337;1254;72812;-79
2023/12/18 07:06:45;;;;;;;19.90;15.30;;;;;;;3.94;100.00;100098.64;107516;1254;61891;-82
2023/12/18 07:09:12;;;;;;;19.50;14.20;;;;;;;3.94;100.00;100096.16;106763;1254;60452;-81
2023/12/18 07:11:40;;;;;;;21.60;16.70;;;;;;;3.94;100.00;100098.41;106255;1260;73936;-80
2023/12/18 07:14:07;;;;;;;24.50;17.70;;;;;;;3.91;100.00;100100.60;106236;1257;70258;-81
2023/12/18 07:16:35;;;;;;;23.40;17.40;;;;;;;3.89;100.00;100101.45;108982;1254;71142;-78
2023/12/18 07:19:02;;;;;;;23.00;17.60;;;;;;;3.93;100.00;100099.77;109208;1253;60130;-79
2023/12/18 07:21:29;;;;;;;27.00;18.70;;;;;;;3.96;100.00;100100.39;107450;1253;59191;-78
2023/12/18 07:23:56;;;;;;;21.20;15.90;;;;;;;3.97;100.00;100104.36;107430;1258;72699;-80
2023/12/18 07:26:23;;;;;;;24.90;18.90;;;;;;;3.98;100.00;100102.65;107458;1256;70779;-80
2023/12/18 07:28:50;;;;;;;25.70;18.00;;;;;;;3.96;100.00;100102.98;106176;1255;72691;-80
2023/12/18 07:31:18;;;;;;;22.70;18.30;;;;;;;3.97;100.00;100105.91;106477;1254;60485;-79
2023/12/18 07:33:45;;;;;;;26.00;18.50;;;;;;;3.98;100.00;100106.35;107914;1253;60466;-78
2023/12/18 07:36:12;;;;;;;28.30;19.50;;;;;;;4.00;100.00;100109.40;109490;1254;72638;-77
2023/12/18 07:38:39;;;;;;;25.80;19.10;;;;;;;3.95;100.00;100114.84;109648;1254;68852;-76
2023/12/18 07:41:07;;;;;;;28.10;19.20;;;;;;;3.95;100.00;100115.90;109397;1254;71721;-77
2023/12/18 07:43:33;;;;;;;24.90;18.30;;;;;;;3.99;100.00;100121.88;109491;1256;61070;-77
2023/12/18 07:46:01;;;;;;;28.80;21.00;;;;;;;4.04;100.00;100123.85;109563;1254;58924;-76
2023/12/18 07:48:29;;;;;;;28.00;18.50;;;;;;;4.04;100.00;100124.64;109697;1254;72587;-78
2023/12/18 07:50:57;;;;;;;29.70;20.80;;;;;;;4.07;100.00;100126.53;109542;1253;68945;-80
2023/12/18 07:53:29;;;;;;;26.60;19.40;;;;;;;4.04;100.00;100124.11;109614;1254;70578;-77
2023/12/18 07:55:56;;;;;;;27.40;19.40;;;;;;;4.04;100.00;100125.56;109487;1253;60695;-78
2023/12/18 07:58:23;;;;;;;26.20;19.60;;;;;;;4.10;100.00;100131.02;109714;1254;59139;-78
2023/12/18 08:00:50;;;;;;;30.50;20.30;;;;;;;4.14;100.00;100123.71;109827;1253;72353;-79
2023/12/18 08:03:17;;;;;;;31.10;21.20;;;;;;;4.17;100.00;100131.20;109602;1254;68963;-78
2023/12/18 08:05:44;;;;;;;27.70;19.00;;;;;;;4.15;100.00;100130.67;109628;1254;71429;-78
2023/12/18 08:08:11;;;;;;;31.10;20.40;;;;;;;4.18;100.00;100125.59;109735;1253;60792;-80
2023/12/18 08:10:42;;;;;;;28.80;20.20;;;;;;;4.21;100.00;100123.75;109731;1253;58722;-77
2023/12/18 08:13:10;;;;;;;31.00;21.30;;;;;;;4.23;100.00;100125.52;109380;1253;72652;-76
2023/12/18 08:15:37;;;;;;;31.10;21.90;;;;;;;4.19;100.00;100123.38;109732;1253;68988;-79
2023/12/18 08:18:04;;;;;;;31.00;22.90;;;;;;;4.20;100.00;100125.23;109595;1254;71186;-79
2023/12/18 08:20:32;;;;;;;32.50;22.00;;;;;;;4.24;100.00;100121.59;109608;1254;61034;-80
2023/12/18 08:22:59;;;;;;;33.40;21.20;;;;;;;4.27;100.00;100119.96;109584;1252;59140;-79
2023/12/18 08:25:26;;;;;;;29.10;20.40;;;;;;;4.27;100.00;100119.74;109649;1254;72561;-79
2023/12/18 08:27:53;;;;;;;30.10;20.80;;;;;;;4.26;100.00;100118.95;109722;1253;69026;-79
2023/12/18 08:30:22;;;;;;;32.60;22.80;;;;;;;4.27;100.00;100120.15;109663;1254;71396;-79
2023/12/18 08:32:50;;;;;;;33.30;22.80;;;;;;;4.24;100.00;100115.11;109337;1254;60617;-80
2023/12/18 08:35:18;;;;;;;31.90;22.40;;;;;;;4.22;100.00;100114.33;109648;1254;58828;-80
2023/12/18 08:37:46;;;;;;;32.00;22.90;;;;;;;4.24;100.00;100111.08;109424;1253;72666;-78
2023/12/18 08:40:13;;;;;;;35.90;22.00;;;;;;;4.25;100.00;100111.17;109566;1254;68409;-80
2023/12/18 08:42:40;;;;;;;30.70;21.70;;;;;;;4.26;100.00;100121.55;109624;1254;71276;-80
2023/12/18 08:45:08;;;;;;;30.20;22.20;;;;;;;4.28;100.00;100123.01;109289;1253;61185;-82
2023/12/18 08:47:35;;;;;;;36.00;23.50;;;;;;;4.31;100.00;100124.00;109605;1252;58956;-80
2023/12/18 08:50:02;;;;;;;35.80;22.70;;;;;;;4.29;100.00;100125.94;109748;1253;72313;-78
2023/12/18 08:52:30;;;;;;;32.00;23.20;;;;;;;4.32;100.00;100129.19;109712;1254;68844;-81
2023/12/18 08:54:57;;;;;;;31.80;22.50;;;;;;;4.36;100.00;100128.92;109606;1254;71049;-78
2023/12/18 08:57:24;;;;;;;36.00;23.40;;;;;;;4.34;100.00;100127.95;109733;1254;58050;-81
2023/12/18 08:59:51;;;;;;;36.50;24.10;;;;;;;4.33;100.00;100131.58;109564;1254;58803;-82
2023/12/18 09:02:18;;;;;;;35.10;22.80;;;;;;;4.35;100.00;100124.59;109773;1254;72545;-80
2023/12/18 09:04:45;;;;;;;32.80;23.30;;;;;;;4.37;100.00;100124.41;109773;1254;69031;-81
2023/12/18 09:07:13;;;;;;;35.30;24.50;;;;;;;4.34;100.00;100123.98;109610;1254;71274;-82
2023/12/18 09:09:40;;;;;;;36.10;24.00;;;;;;;4.31;100.00;100124.86;109432;1257;59784;-82
2023/12/18 09:12:07;;;;;;;36.00;23.40;;;;;;;4.36;100.00;100121.18;109532;1253;61188;-85
2023/12/18 09:14:35;;;;;;;37.10;24.00;;;;;;;4.39;100.00;100118.62;109702;1254;72374;-86
2023/12/18 09:17:03;;;;;;;37.70;24.70;;;;;;;4.41;100.00;100118.01;109651;1253;68768;-84
2023/12/18 09:19:30;;;;;;;32.20;21.70;;;;;;;4.36;100.00;100114.14;109635;1253;71546;-85
2023/12/18 09:21:58;;;;;;;36.10;22.80;;;;;;;4.33;100.00;100113.63;109522;1253;61909;-84
2023/12/18 09:24:25;;;;;;;35.00;24.90;;;;;;;4.36;100.00;100111.88;109464;1254;58992;-87
2023/12/18 09:26:53;;;;;;;40.80;25.50;;;;;;;4.35;100.00;100110.52;109433;1253;72721;-85
2023/12/18 09:29:22;;;;;;;35.90;22.20;;;;;;;4.34;100.00;100112.69;109245;1254;68810;-85
2023/12/18 09:31:50;;;;;;;30.00;21.10;;;;;;;4.36;100.00;100106.96;109364;1254;72914;-87
2023/12/18 09:34:18;;;;;;;34.10;24.20;;;;;;;4.35;100.00;100107.38;109121;1253;60819;-84
2023/12/18 09:36:54;;;;;;;35.20;22.60;;;;;;;4.37;100.00;100107.80;109322;1253;61678;-84
2023/12/18 09:39:23;;;;;;;35.00;23.30;;;;;;;4.38;100.00;100106.64;109418;1254;73268;-85
2023/12/18 09:41:51;;;;;;;33.90;22.60;;;;;;;4.42;100.00;100101.23;109571;1252;68956;-85
2023/12/18 09:44:18;;;;;;;33.60;22.50;;;;;;;4.44;100.00;100100.73;109301;1254;71594;-88
2023/12/18 09:46:48;;;;;;;32.50;23.40;;;;;;;4.40;100.00;100101.05;109574;1253;60630;-88
2023/12/18 09:56:21;;;;;;;34.90;23.40;;;;;;;4.46;100.00;100101.13;108609;1260;69049;-88
2023/12/18 10:05:29;;;;;;;33.00;22.50;;;;;;;4.51;100.00;100096.52;94382;1273;955787;-90
2023/12/18 10:08:01;;;;;;;32.70;22.30;;;;;;;4.56;100.00;100097.55;107934;1273;71959;-87
2023/12/18 10:10:32;;;;;;;34.10;23.90;;;;;;;4.57;100.00;100090.61;108240;1273;68241;-89
2023/12/18 10:13:03;;;;;;;32.50;22.50;;;;;;;4.55;100.00;100097.23;108144;1273;71258;-83
2023/12/18 10:15:30;;;;;;;32.90;22.70;;;;;;;4.57;100.00;100090.83;108012;1273;60591;-83
2023/12/18 10:17:57;;;;;;;34.50;23.30;;;;;;;4.59;100.00;100092.41;108003;1273;59173;-83
2023/12/18 10:20:25;;;;;;;34.50;23.80;;;;;;;4.58;100.00;100086.83;107934;1273;73687;-82
2023/12/18 10:22:53;;;;;;;32.60;22.30;;;;;;;4.59;100.00;100089.20;107718;1276;69008;-83
2023/12/18 10:25:20;;;;;;;34.30;23.80;;;;;;;4.54;100.00;100087.31;107529;1273;71241;-83
2023/12/18 10:27:47;;;;;;;31.70;21.50;;;;;;;4.53;100.00;100084.59;107688;1273;60832;-82
2023/12/18 10:30:14;;;;;;;29.40;21.30;;;;;;;4.55;100.00;100086.60;107922;1273;58296;-81
2023/12/18 10:32:46;;;;;;;30.20;21.40;;;;;;;4.55;100.00;100085.98;107844;1273;72111;-83
2023/12/18 10:35:14;;;;;;;29.90;21.90;;;;;;;4.58;100.00;100086.30;107774;1273;69211;-82
2023/12/18 10:37:48;;;;;;;29.50;21.30;;;;;;;4.56;100.00;100085.25;107527;1273;71200;-82
2023/12/18 10:40:20;;;;;;;28.10;20.80;;;;;;;4.56;100.00;100085.41;107546;1274;60533;-81
2023/12/18 10:43:21;;;;;;;27.80;19.60;;;;;;;4.63;100.00;100085.95;107392;1273;61061;-80
2023/12/18 10:45:52;;;;;;;27.50;19.90;;;;;;;4.69;100.00;100089.85;107632;1274;72848;-78
2023/12/18 10:48:20;;;;;;;26.30;20.00;;;;;;;4.71;100.00;100084.75;107792;1274;69125;-79
2023/12/18 10:50:51;;;;;;;28.10;21.00;;;;;;;4.73;100.00;100085.14;107853;1274;70480;-77
2023/12/18 10:53:19;;;;;;;27.40;19.30;;;;;;;4.77;100.00;100081.34;107969;1273;60852;-83
2023/12/18 10:55:47;;;;;;;27.00;20.60;;;;;;;4.80;100.00;100089.31;107545;1273;59900;-81
2023/12/18 10:58:14;;;;;;;28.30;19.40;;;;;;;4.77;100.00;100089.01;107872;1273;72483;-83
2023/12/18 11:00:41;;;;;;;26.80;18.90;;;;;;;4.73;100.00;100086.56;107934;1273;69172;-85
2023/12/18 11:03:09;;;;;;;30.10;19.50;;;;;;;4.76;100.00;100094.38;107824;1276;71953;-85
2023/12/18 11:05:38;;;;;;;22.20;17.20;;;;;;;4.79;100.00;100096.94;107772;1277;61529;-84
2023/12/18 11:08:12;;;;;;;21.60;16.20;;;;;;;4.81;100.00;100097.77;107735;1275;59779;-82
2023/12/18 11:10:42;;;;;;;21.60;16.80;;;;;;;4.83;100.00;100098.70;107947;1276;75056;-81
2023/12/18 11:13:27;;;;;;;24.70;16.80;;;;;;;4.85;100.00;100099.07;107940;1276;68985;-82
2023/12/18 11:16:14;;;;;;;22.70;15.30;;;;;;;4.83;100.00;100099.06;107689;1276;71258;-83
2023/12/18 11:18:57;;;;;;;21.60;16.30;;;;;;;4.83;100.00;100098.53;107931;1273;62538;-83
2023/12/18 11:21:36;;;;;;;21.20;15.00;;;;;;;4.85;100.00;100098.15;107861;1276;60308;-81